Time;durP1;ratioP1;P1;durP2;ratioP2;P2;SDS_P1;SDS_P2;PMS_P1;PMS_P2;Temp;Humidity;BMP_temperature;BMP_pressure;BME280_temperature;BME280_humidity;BME280_pressure;Samples;Min_cycle;Max_cycle;Signal;HPM_P1;HPM_P2
2021/04/25 00:00:11;;;;;;;11.80;7.30;;;7.00;84.80;;;;;;8334056;28;20885;-75
2021/04/25 00:04:15;;;;;;;15.13;7.77;;;7.00;84.10;;;;;;8352675;28;20465;-75
2021/04/25 00:08:16;;;;;;;13.63;5.83;;;6.90;84.80;;;;;;8331938;28;20477;-75
2021/04/25 00:12:17;;;;;;;10.60;6.13;;;6.80;84.60;;;;;;8346247;28;20448;-74
2021/04/25 00:16:22;;;;;;;8.83;5.60;;;6.70;84.50;;;;;;8368762;28;20197;-75
2021/04/25 00:20:23;;;;;;;17.53;8.37;;;6.70;84.50;;;;;;8330145;28;20481;-75
2021/04/25 00:24:24;;;;;;;17.47;5.77;;;6.60;85.30;;;;;;8353533;28;20486;-75
2021/04/25 00:28:25;;;;;;;9.43;5.67;;;6.60;84.90;;;;;;8340331;28;20214;-76
2021/04/25 00:32:26;;;;;;;15.73;6.10;;;6.60;85.00;;;;;;8350685;28;20198;-76
2021/04/25 00:36:28;;;;;;;10.00;6.60;;;6.60;85.10;;;;;;8346885;28;20442;-74
2021/04/25 00:40:29;;;;;;;9.90;6.43;;;6.50;85.00;;;;;;8336562;28;20463;-75
2021/04/25 00:44:30;;;;;;;8.27;4.73;;;6.50;85.00;;;;;;8358568;28;20465;-75
2021/04/25 00:48:30;;;;;;;11.53;5.87;;;6.50;85.00;;;;;;8354995;28;20201;-75
2021/04/25 00:52:36;;;;;;;8.90;5.80;;;6.40;85.00;;;;;;8343984;28;20667;-75
2021/04/25 00:56:37;;;;;;;11.57;5.87;;;6.40;85.40;;;;;;8351712;28;20630;-75
2021/04/25 01:00:37;;;;;;;5.57;4.30;;;6.30;85.50;;;;;;8357099;28;21055;-76
2021/04/25 01:04:38;;;;;;;8.10;6.07;;;6.20;85.50;;;;;;8362987;28;20217;-77
2021/04/25 01:08:39;;;;;;;10.73;5.13;;;6.20;85.80;;;;;;8371344;28;20206;-77
2021/04/25 01:12:41;;;;;;;7.87;5.13;;;6.10;86.00;;;;;;8371164;28;20452;-77
2021/04/25 01:16:41;;;;;;;11.67;5.50;;;6.10;86.20;;;;;;8362660;28;20195;-77
2021/04/25 01:20:42;;;;;;;11.80;6.50;;;6.00;86.00;;;;;;8344331;28;20452;-77
2021/04/25 01:24:46;;;;;;;14.83;5.90;;;6.00;86.10;;;;;;8360114;28;20225;-77
2021/04/25 01:28:49;;;;;;;13.90;6.30;;;5.90;86.40;;;;;;8357699;28;20222;-77
2021/04/25 01:32:50;;;;;;;9.43;5.90;;;5.90;86.60;;;;;;8372288;28;20508;-77
2021/04/25 01:36:56;;;;;;;9.70;5.13;;;5.90;87.30;;;;;;8362973;28;20449;-77
2021/04/25 01:40:57;;;;;;;13.97;5.80;;;5.80;86.60;;;;;;8373637;28;20447;-77
2021/04/25 01:44:58;;;;;;;10.37;5.70;;;5.80;86.80;;;;;;8370888;28;20467;-77
2021/04/25 01:48:59;;;;;;;13.30;6.07;;;5.80;87.10;;;;;;8365816;28;20444;-77
2021/04/25 01:53:00;;;;;;;16.97;6.60;;;5.80;87.20;;;;;;8344419;28;20185;-77
2021/04/25 01:57:04;;;;;;;15.20;5.70;;;5.70;87.30;;;;;;8348652;28;20452;-77
2021/04/25 02:01:05;;;;;;;14.20;6.27;;;5.70;87.50;;;;;;8361731;28;20189;-77
2021/04/25 02:05:10;;;;;;;11.10;7.70;;;5.60;87.70;;;;;;8375574;28;20461;-77
2021/04/25 02:09:17;;;;;;;7.73;6.30;;;5.60;88.00;;;;;;8385654;28;20441;-77
2021/04/25 02:13:21;;;;;;;9.97;5.53;;;5.50;87.80;;;;;;8361443;28;20448;-77
2021/04/25 02:17:26;;;;;;;11.10;6.03;;;5.40;88.10;;;;;;8383964;28;21027;-76
2021/04/25 02:21:30;;;;;;;11.33;6.00;;;5.40;88.10;;;;;;8376982;28;20450;-76
2021/04/25 02:25:35;;;;;;;10.77;6.90;;;5.30;88.50;;;;;;8368315;28;20897;-77
2021/04/25 02:29:38;;;;;;;11.93;6.83;;;5.30;88.60;;;;;;8357783;28;20448;-76
2021/04/25 02:33:39;;;;;;;10.53;6.77;;;5.20;89.00;;;;;;8365320;28;20209;-76
2021/04/25 02:37:44;;;;;;;14.93;6.50;;;5.10;89.00;;;;;;8375825;28;21046;-76
2021/04/25 02:41:46;;;;;;;11.33;5.80;;;5.10;89.60;;;;;;8372547;28;20989;-77
2021/04/25 02:45:47;;;;;;;13.33;5.60;;;5.00;90.00;;;;;;8353461;28;20476;-76
2021/04/25 02:49:47;;;;;;;10.80;6.40;;;4.90;90.10;;;;;;8363410;28;20453;-77
2021/04/25 02:53:48;;;;;;;9.07;4.77;;;4.90;90.00;;;;;;8361656;28;20217;-77
2021/04/25 02:57:49;;;;;;;6.60;4.90;;;4.90;90.10;;;;;;8362155;28;20193;-77
2021/04/25 03:01:49;;;;;;;12.27;6.53;;;4.80;90.20;;;;;;8356022;28;20203;-77
2021/04/25 03:05:53;;;;;;;7.60;5.60;;;4.80;90.30;;;;;;8358054;28;20227;-77
2021/04/25 03:09:57;;;;;;;13.50;6.40;;;4.80;90.30;;;;;;8355898;28;20189;-77
2021/04/25 03:14:03;;;;;;;12.40;5.50;;;4.80;90.30;;;;;;8339527;28;20540;-77
2021/04/25 03:18:04;;;;;;;7.07;4.30;;;4.80;90.30;;;;;;8363185;28;20521;-77
2021/04/25 03:22:05;;;;;;;18.40;6.20;;;4.80;90.40;;;;;;8361909;28;20463;-77
2021/04/25 03:26:13;;;;;;;6.63;4.70;;;4.70;90.50;;;;;;8355234;28;20216;-77
2021/04/25 03:30:18;;;;;;;18.73;6.57;;;4.70;90.50;;;;;;8355347;28;20213;-77
2021/04/25 03:34:23;;;;;;;13.23;4.80;;;4.70;90.60;;;;;;8350789;28;20447;-77
2021/04/25 03:38:27;;;;;;;14.60;6.90;;;4.60;90.60;;;;;;8357573;28;20452;-77
2021/04/25 03:42:32;;;;;;;15.70;6.47;;;4.60;90.70;;;;;;8375640;28;20466;-77
2021/04/25 03:46:37;;;;;;;17.03;6.30;;;4.60;90.80;;;;;;8359538;28;20996;-77
2021/04/25 03:50:37;;;;;;;11.03;6.00;;;4.50;90.80;;;;;;8371411;28;20191;-77
2021/04/25 03:54:38;;;;;;;13.40;6.30;;;4.50;90.80;;;;;;8362181;28;20437;-77
2021/04/25 03:58:42;;;;;;;15.33;5.90;;;4.40;91.00;;;;;;8379079;28;20231;-77
2021/04/25 04:02:43;;;;;;;13.43;6.43;;;4.30;91.10;;;;;;8365899;28;20435;-77
2021/04/25 04:06:46;;;;;;;15.93;7.67;;;4.30;91.20;;;;;;8357636;28;20250;-77
2021/04/25 04:10:50;;;;;;;14.47;6.27;;;4.20;91.30;;;;;;8350473;28;20633;-77
2021/04/25 04:14:53;;;;;;;7.27;6.20;;;4.20;91.40;;;;;;8360867;28;20873;-77
2021/04/25 04:18:58;;;;;;;14.50;8.40;;;4.10;91.50;;;;;;8375012;28;21112;-77
2021/04/25 04:22:59;;;;;;;12.60;6.37;;;4.10;91.60;;;;;;8361478;28;20454;-77
2021/04/25 04:27:01;;;;;;;11.67;7.80;;;4.10;91.70;;;;;;8343081;28;20787;-77
2021/04/25 04:31:09;;;;;;;8.27;6.90;;;4.00;91.80;;;;;;8373310;28;20449;-77
2021/04/25 04:35:18;;;;;;;18.20;7.90;;;4.10;91.80;;;;;;8349875;28;20523;-77
2021/04/25 04:39:19;;;;;;;15.30;7.23;;;4.00;91.80;;;;;;8364128;28;20468;-77
2021/04/25 04:43:20;;;;;;;13.03;6.77;;;4.10;92.00;;;;;;8332997;28;20546;-77
2021/04/25 04:47:31;;;;;;;17.37;7.50;;;4.10;91.90;;;;;;8378051;28;20454;-77
2021/04/25 04:51:40;;;;;;;21.23;7.70;;;4.20;91.90;;;;;;8370168;28;20447;-77
2021/04/25 04:55:41;;;;;;;10.43;6.07;;;4.20;91.90;;;;;;8348620;28;20453;-77
2021/04/25 04:59:43;;;;;;;17.80;7.90;;;4.20;92.10;;;;;;8344883;28;20444;-77
2021/04/25 05:03:47;;;;;;;18.90;8.30;;;4.20;92.10;;;;;;8356466;28;21025;-77
2021/04/25 05:07:52;;;;;;;19.87;8.13;;;4.30;92.10;;;;;;8351302;28;20497;-77
2021/04/25 05:11:56;;;;;;;17.43;6.90;;;4.30;92.20;;;;;;8369960;28;20435;-77
2021/04/25 05:15:57;;;;;;;20.70;8.47;;;4.40;92.20;;;;;;8342728;28;20454;-77
2021/04/25 05:19:58;;;;;;;14.73;7.80;;;4.50;92.20;;;;;;8335843;28;20472;-77
2021/04/25 05:23:58;;;;;;;16.80;8.87;;;4.50;92.10;;;;;;8363394;28;20262;-77
2021/04/25 05:27:59;;;;;;;14.83;8.10;;;4.60;92.10;;;;;;8357256;28;20272;-77
2021/04/25 05:32:03;;;;;;;17.30;8.93;;;4.70;92.10;;;;;;8337785;28;20213;-77
2021/04/25 05:36:07;;;;;;;10.73;7.43;;;4.90;92.10;;;;;;8365125;28;20204;-78
2021/04/25 05:40:12;;;;;;;17.33;8.40;;;5.00;92.10;;;;;;8360725;28;20520;-77
2021/04/25 05:44:13;;;;;;;16.50;8.67;;;5.10;92.00;;;;;;8364457;28;20480;-77
2021/04/25 05:48:14;;;;;;;16.00;8.33;;;5.20;91.90;;;;;;8352824;28;20468;-78
2021/04/25 05:52:14;;;;;;;16.13;7.17;;;5.40;91.70;;;;;;8371314;28;20289;-77
2021/04/25 05:56:20;;;;;;;23.47;8.13;;;5.60;91.40;;;;;;8387613;28;20201;-78
2021/04/25 06:00:28;;;;;;;11.23;7.80;;;5.70;91.30;;;;;;8388868;28;20467;-78
2021/04/25 06:04:29;;;;;;;13.37;7.13;;;5.90;91.40;;;;;;8359903;28;20469;-78
2021/04/25 06:08:30;;;;;;;16.43;8.20;;;6.10;91.40;;;;;;8365922;28;20878;-77
2021/04/25 06:12:42;;;;;;;9.33;5.83;;;6.20;91.00;;;;;;8363964;28;20187;-77
2021/04/25 06:16:46;;;;;;;13.20;6.40;;;6.40;90.80;;;;;;8396768;28;20810;-78
2021/04/25 06:20:47;;;;;;;10.23;5.13;;;6.60;90.30;;;;;;8367657;28;20860;-77
2021/04/25 06:24:53;;;;;;;19.50;5.67;;;6.70;88.20;;;;;;8366959;28;20207;-78
2021/04/25 06:28:58;;;;;;;10.77;6.67;;;6.90;87.10;;;;;;8362398;28;20186;-78
2021/04/25 06:32:59;;;;;;;9.17;5.37;;;7.20;86.40;;;;;;8353707;28;20504;-77
2021/04/25 06:37:12;;;;;;;6.90;4.70;;;7.50;84.70;;;;;;8369995;28;20473;-76
2021/04/25 06:41:13;;;;;;;21.40;7.20;;;7.90;81.00;;;;;;8357296;28;20950;-77
2021/04/25 06:45:17;;;;;;;9.80;4.80;;;8.30;79.90;;;;;;8354033;28;20972;-77
2021/04/25 06:49:18;;;;;;;8.43;5.30;;;8.90;76.60;;;;;;8361331;28;20201;-78
2021/04/25 06:53:21;;;;;;;8.70;6.70;;;9.50;75.20;;;;;;8358896;28;20447;-77
2021/04/25 06:57:32;;;;;;;9.13;6.40;;;10.30;72.90;;;;;;8365794;28;20183;-77
2021/04/25 07:01:44;;;;;;;9.60;7.40;;;11.10;68.80;;;;;;8382638;28;20445;-77
2021/04/25 07:05:45;;;;;;;15.03;7.77;;;11.80;66.10;;;;;;8357521;28;20458;-77
2021/04/25 07:09:50;;;;;;;11.60;6.03;;;12.20;63.00;;;;;;8362994;28;20473;-77
2021/04/25 07:13:56;;;;;;;9.07;6.10;;;12.60;61.10;;;;;;8355975;28;20444;-77
2021/04/25 07:18:00;;;;;;;14.00;6.90;;;13.00;60.00;;;;;;8361207;28;20216;-79
2021/04/25 07:22:04;;;;;;;12.20;7.37;;;12.60;57.10;;;;;;8372782;28;20454;-77
2021/04/25 07:26:05;;;;;;;11.13;7.10;;;12.30;58.40;;;;;;8365513;28;20465;-77
2021/04/25 07:30:10;;;;;;;11.20;6.60;;;12.00;59.00;;;;;;8377806;28;20442;-76
2021/04/25 07:34:18;;;;;;;8.80;6.97;;;11.80;58.70;;;;;;8373423;28;20433;-76
2021/04/25 07:38:19;;;;;;;10.50;7.13;;;11.60;59.30;;;;;;8352752;28;20488;-76
2021/04/25 07:42:25;;;;;;;23.10;7.23;;;11.40;59.30;;;;;;8353428;28;20450;-77
2021/04/25 07:46:27;;;;;;;8.03;5.83;;;11.40;60.10;;;;;;8376579;28;20310;-77
2021/04/25 07:50:33;;;;;;;7.23;5.33;;;12.10;57.60;;;;;;8355697;28;20446;-77
2021/04/25 07:54:40;;;;;;;13.33;5.57;;;12.20;57.50;;;;;;8376668;28;20463;-77
2021/04/25 07:58:45;;;;;;;11.37;6.97;;;12.20;58.60;;;;;;8369444;28;21336;-78
2021/04/25 08:02:55;;;;;;;11.63;7.00;;;12.90;56.70;;;;;;8378426;28;20450;-77
2021/04/25 08:06:56;;;;;;;15.23;6.27;;;13.30;55.90;;;;;;8361186;28;20553;-77
2021/04/25 08:11:00;;;;;;;17.33;8.60;;;13.60;54.70;;;;;;8353577;28;20429;-77
2021/04/25 08:15:08;;;;;;;15.00;6.60;;;13.80;52.60;;;;;;8357847;28;20203;-77
2021/04/25 08:19:09;;;;;;;11.57;6.37;;;13.70;54.00;;;;;;8365048;28;20465;-77
2021/04/25 08:23:15;;;;;;;8.57;6.17;;;13.80;52.70;;;;;;8358139;28;20515;-77
2021/04/25 08:27:16;;;;;;;11.03;7.13;;;14.30;52.50;;;;;;8355329;28;20471;-79
2021/04/25 08:31:22;;;;;;;15.80;6.07;;;15.40;52.50;;;;;;8377359;28;20462;-77
2021/04/25 08:35:25;;;;;;;13.07;7.20;;;16.80;50.20;;;;;;8361292;28;20825;-77
2021/04/25 08:39:33;;;;;;;10.23;6.43;;;17.30;46.60;;;;;;8344110;28;20535;-79
2021/04/25 08:43:41;;;;;;;12.17;7.20;;;17.10;46.30;;;;;;8351048;28;20464;-77
2021/04/25 08:47:55;;;;;;;9.80;6.50;;;16.70;47.10;;;;;;8385013;28;20464;-78
2021/04/25 08:52:10;;;;;;;16.50;6.83;;;17.50;46.20;;;;;;8383129;28;20436;-78
2021/04/25 08:56:45;;;;;;;11.90;6.87;;;18.00;45.30;;;;;;8362427;28;20458;-77
2021/04/25 09:00:52;;;;;;;11.40;6.90;;;17.30;42.80;;;;;;8344890;28;20544;-78
2021/04/25 09:04:54;;;;;;;9.17;6.63;;;16.70;45.10;;;;;;8366277;28;20453;-76
2021/04/25 09:09:03;;;;;;;12.43;7.10;;;17.60;44.80;;;;;;8361377;28;20480;-77
2021/04/25 09:13:34;;;;;;;9.80;5.40;;;18.90;42.70;;;;;;8380418;28;20423;-77
2021/04/25 09:18:05;;;;;;;10.50;6.47;;;20.40;40.90;;;;;;8369647;28;20445;-80
2021/04/25 09:22:07;;;;;;;11.73;6.10;;;21.10;39.60;;;;;;8412377;23;20537;-79
2021/04/25 09:26:39;;;;;;;11.67;6.80;;;21.20;39.20;;;;;;8311709;28;20493;-78
2021/04/25 09:31:24;;;;;;;;;;;;;;;;;;;;;
2021/04/25 09:35:43;;;;;;;7.73;5.60;;;22.00;36.80;;;;;;8352587;28;20573;-76
2021/04/25 09:40:22;;;;;;;9.47;6.20;;;22.30;36.40;;;;;;8347264;28;20478;-80
2021/04/25 09:44:36;;;;;;;8.13;5.60;;;22.40;36.00;;;;;;8312111;28;20471;-76
2021/04/25 09:48:42;;;;;;;8.00;5.67;;;22.30;35.70;;;;;;8319093;28;20513;-77
2021/04/25 09:52:48;;;;;;;7.30;6.00;;;22.00;35.20;;;;;;8314296;28;20958;-77
2021/04/25 09:56:50;;;;;;;11.10;6.50;;;21.30;36.50;;;;;;8318087;28;20529;-77
2021/04/25 10:00:53;;;;;;;12.73;7.23;;;21.30;37.00;;;;;;8327495;28;20454;-77
2021/04/25 10:05:06;;;;;;;14.07;6.57;;;21.70;36.60;;;;;;8297209;28;20467;-76
2021/04/25 10:09:28;;;;;;;6.60;5.90;;;21.80;36.90;;;;;;8331437;28;20430;-76
2021/04/25 10:13:44;;;;;;;9.70;6.47;;;22.10;35.70;;;;;;8316693;28;20439;-78
2021/04/25 10:17:48;;;;;;;9.07;6.10;;;22.10;36.10;;;;;;8297384;28;20463;-76
2021/04/25 10:21:59;;;;;;;11.50;7.27;;;22.00;36.00;;;;;;8335553;28;20505;-77
2021/04/25 10:26:22;;;;;;;8.40;6.37;;;21.80;36.90;;;;;;8318165;28;20473;-78
2021/04/25 10:30:35;;;;;;;8.40;6.70;;;21.60;36.20;;;;;;8310729;28;20434;-78
2021/04/25 10:34:40;;;;;;;8.53;6.53;;;21.20;35.70;;;;;;8315799;28;20450;-77
2021/04/25 10:38:52;;;;;;;9.57;6.90;;;20.80;36.80;;;;;;8306366;28;20547;-79
2021/04/25 10:43:00;;;;;;;11.27;7.03;;;21.30;37.20;;;;;;8319930;28;20959;-76
2021/04/25 10:47:19;;;;;;;10.60;7.70;;;21.70;35.70;;;;;;8344902;28;20446;-77
2021/04/25 10:51:25;;;;;;;12.73;9.23;;;21.20;36.10;;;;;;8316412;28;20453;-77
2021/04/25 10:55:32;;;;;;;11.30;8.37;;;20.70;38.70;;;;;;8295553;28;20443;-77
2021/04/25 10:59:41;;;;;;;14.03;8.93;;;20.80;37.20;;;;;;8326070;28;20485;-77
2021/04/25 11:03:42;;;;;;;13.07;9.27;;;20.50;37.90;;;;;;8312151;28;20982;-76
2021/04/25 11:07:44;;;;;;;15.00;9.93;;;20.70;38.70;;;;;;8311022;28;20995;-76
2021/04/25 11:11:50;;;;;;;14.10;10.00;;;20.90;38.30;;;;;;8329491;28;20229;-76
2021/04/25 11:15:56;;;;;;;12.27;9.50;;;20.90;38.30;;;;;;8309709;28;20453;-78
2021/04/25 11:20:31;;;;;;;11.50;9.60;;;21.00;38.10;;;;;;8336337;28;20504;-77
2021/04/25 11:24:32;;;;;;;14.00;11.20;;;21.40;37.50;;;;;;8309372;28;20463;-77
2021/04/25 11:29:21;;;;;;;16.90;11.20;;;21.20;37.50;;;;;;8304708;28;20449;-77
2021/04/25 11:33:34;;;;;;;13.10;9.80;;;21.00;37.40;;;;;;8307675;28;20971;-77
2021/04/25 11:37:41;;;;;;;10.40;9.30;;;20.90;38.10;;;;;;8303773;28;20977;-77
2021/04/25 11:41:46;;;;;;;12.53;10.13;;;21.50;37.60;;;;;;8325914;28;20439;-78
2021/04/25 11:45:53;;;;;;;14.47;9.83;;;21.90;35.50;;;;;;8329999;28;20480;-77
2021/04/25 11:50:00;;;;;;;11.47;9.20;;;21.40;36.70;;;;;;8298041;28;20454;-77
2021/04/25 11:54:21;;;;;;;13.13;10.70;;;21.40;37.00;;;;;;8337042;28;20436;-76
2021/04/25 11:58:31;;;;;;;20.70;11.47;;;21.30;36.70;;;;;;8308805;28;20435;-77
2021/04/25 12:02:43;;;;;;;14.20;9.77;;;21.30;37.70;;;;;;8285864;28;20432;-77
2021/04/25 12:07:04;;;;;;;20.10;10.93;;;21.40;36.10;;;;;;8314670;28;20470;-80
2021/04/25 12:11:06;;;;;;;13.47;9.63;;;21.10;35.70;;;;;;8308798;28;20443;-76
2021/04/25 12:15:12;;;;;;;10.90;8.70;;;20.70;36.20;;;;;;8294962;28;20415;-78
2021/04/25 12:19:21;;;;;;;19.30;9.10;;;20.70;37.10;;;;;;8315902;28;21052;-76
2021/04/25 12:23:32;;;;;;;11.70;9.30;;;21.20;36.20;;;;;;8323147;28;20508;-75
2021/04/25 12:27:33;;;;;;;12.70;9.60;;;21.60;36.40;;;;;;8318954;28;20571;-76
2021/04/25 12:31:46;;;;;;;16.57;8.83;;;22.00;35.80;;;;;;8313562;28;20424;-77
2021/04/25 12:35:50;;;;;;;18.50;11.50;;;21.90;35.10;;;;;;8327080;28;20275;-77
2021/04/25 12:40:01;;;;;;;17.53;10.80;;;21.70;35.70;;;;;;8322940;28;20457;-74
2021/04/25 12:44:11;;;;;;;19.67;11.97;;;21.60;36.40;;;;;;8342483;28;20473;-76
2021/04/25 12:48:31;;;;;;;20.53;11.73;;;21.50;35.80;;;;;;8323741;28;20440;-74
2021/04/25 12:52:44;;;;;;;14.73;10.60;;;21.20;35.90;;;;;;8316577;28;20479;-75
2021/04/25 12:56:56;;;;;;;20.83;12.70;;;21.10;36.30;;;;;;8330627;28;20464;-76
2021/04/25 13:01:39;;;;;;;25.97;13.27;;;21.20;37.10;;;;;;8311688;28;20462;-76
2021/04/25 13:06:06;;;;;;;12.20;9.57;;;21.50;37.10;;;;;;8331606;28;20819;-75
2021/04/25 13:10:22;;;;;;;278.13;128.90;;;21.50;36.30;;;;;;8325074;28;20442;-76
2021/04/25 13:14:34;;;;;;;15.10;10.90;;;21.50;36.30;;;;;;8323866;28;20444;-76
2021/04/25 13:18:38;;;;;;;14.97;11.33;;;21.20;36.00;;;;;;8297524;28;20472;-76
2021/04/25 13:23:10;;;;;;;17.73;11.70;;;20.90;36.90;;;;;;8345209;28;20446;-74
2021/04/25 13:27:17;;;;;;;20.13;10.33;;;20.70;37.30;;;;;;8344551;28;20458;-75
2021/04/25 13:31:44;;;;;;;12.67;9.90;;;20.70;38.40;;;;;;8325964;28;20442;-76
2021/04/25 13:36:05;;;;;;;14.20;9.57;;;20.80;37.00;;;;;;8327185;28;20442;-74
2021/04/25 13:40:11;;;;;;;19.50;9.73;;;20.60;35.20;;;;;;8314404;28;20478;-76
2021/04/25 13:44:11;;;;;;;12.43;9.60;;;20.50;35.50;;;;;;8318691;28;20430;-75
2021/04/25 13:48:13;;;;;;;17.17;11.80;;;20.60;35.80;;;;;;8325976;28;20444;-76
2021/04/25 13:52:13;;;;;;;20.07;11.97;;;20.80;36.70;;;;;;8311776;28;20675;-76
2021/04/25 13:56:14;;;;;;;18.47;11.70;;;20.90;36.00;;;;;;8324681;28;20439;-74
2021/04/25 14:00:17;;;;;;;17.83;11.77;;;20.90;36.00;;;;;;8335756;28;20192;-74
2021/04/25 14:04:24;;;;;;;15.60;10.70;;;21.00;36.50;;;;;;8315643;28;20203;-74
2021/04/25 14:08:28;;;;;;;22.70;13.23;;;21.10;35.90;;;;;;8322232;28;20480;-77
2021/04/25 14:12:35;;;;;;;47.13;26.30;;;21.40;37.80;;;;;;8310303;28;20435;-75
2021/04/25 14:16:40;;;;;;;18.63;11.37;;;21.40;36.70;;;;;;8312123;28;20441;-75
2021/04/25 14:20:40;;;;;;;22.27;14.73;;;21.20;35.60;;;;;;8314932;28;20494;-75
2021/04/25 14:24:41;;;;;;;15.83;12.10;;;20.80;36.70;;;;;;8319479;28;20472;-76
2021/04/25 14:28:45;;;;;;;15.70;11.70;;;20.90;37.40;;;;;;8316851;28;20553;-75
2021/04/25 14:32:46;;;;;;;14.90;12.40;;;21.00;36.20;;;;;;8342789;28;20477;-76
2021/04/25 14:36:47;;;;;;;20.47;13.70;;;21.10;36.20;;;;;;8304604;28;20442;-75
2021/04/25 14:40:48;;;;;;;20.03;14.07;;;20.90;36.60;;;;;;8315631;28;20574;-74
2021/04/25 14:44:48;;;;;;;16.20;11.43;;;21.00;37.10;;;;;;8307137;28;20211;-74
2021/04/25 14:48:50;;;;;;;22.97;13.17;;;21.30;36.80;;;;;;8314990;28;20210;-75
2021/04/25 14:52:51;;;;;;;24.03;11.63;;;21.30;35.30;;;;;;8317187;28;20216;-75
2021/04/25 14:56:52;;;;;;;65.70;33.80;;;21.20;35.00;;;;;;8314785;28;20450;-75
2021/04/25 15:00:53;;;;;;;20.53;13.40;;;20.90;36.50;;;;;;8306231;28;20500;-75
2021/04/25 15:05:03;;;;;;;16.17;13.97;;;20.80;36.40;;;;;;8301686;28;20216;-75
2021/04/25 15:09:05;;;;;;;15.37;11.53;;;20.60;37.50;;;;;;8290671;28;20537;-70
2021/04/25 15:13:07;;;;;;;17.37;11.77;;;20.40;37.90;;;;;;8296482;28;20442;-70
2021/04/25 15:17:09;;;;;;;16.03;12.57;;;20.50;36.50;;;;;;8296785;28;21090;-70
2021/04/25 15:21:10;;;;;;;17.57;10.93;;;20.30;36.80;;;;;;8301658;28;20458;-73
2021/04/25 15:25:12;;;;;;;16.10;10.90;;;20.30;36.90;;;;;;8306831;28;20552;-72
2021/04/25 15:29:18;;;;;;;14.10;10.30;;;20.10;37.10;;;;;;8313832;28;20454;-72
2021/04/25 15:33:20;;;;;;;14.03;10.30;;;20.10;37.30;;;;;;8297605;28;20469;-73
2021/04/25 15:37:23;;;;;;;13.50;9.23;;;20.00;37.60;;;;;;8309261;28;20465;-74
2021/04/25 15:41:23;;;;;;;17.00;11.80;;;20.00;37.10;;;;;;8295902;28;20951;-74
2021/04/25 15:45:38;;;;;;;14.30;9.90;;;20.10;37.80;;;;;;8281724;28;20913;-74
2021/04/25 15:49:39;;;;;;;13.50;10.13;;;20.10;38.00;;;;;;8308723;28;20188;-76
2021/04/25 15:53:51;;;;;;;11.00;9.37;;;19.90;36.40;;;;;;8305951;28;20880;-76
2021/04/25 15:57:55;;;;;;;19.73;9.90;;;19.60;37.50;;;;;;8307214;28;20450;-75
2021/04/25 16:01:57;;;;;;;11.00;8.47;;;19.50;37.70;;;;;;8311515;28;20442;-75
2021/04/25 16:06:05;;;;;;;16.93;9.70;;;19.40;37.80;;;;;;8319712;28;20547;-76
2021/04/25 16:10:14;;;;;;;14.27;9.47;;;19.20;37.50;;;;;;8320816;28;20433;-74
2021/04/25 16:14:25;;;;;;;11.20;9.13;;;18.80;38.50;;;;;;8308152;28;20524;-76
2021/04/25 16:18:26;;;;;;;12.87;8.40;;;18.60;38.90;;;;;;8291399;28;20487;-76
2021/04/25 16:22:27;;;;;;;10.33;7.90;;;18.40;39.60;;;;;;8293751;28;20470;-76
2021/04/25 16:26:28;;;;;;;10.10;9.10;;;18.40;40.40;;;;;;8308095;28;20468;-76
2021/04/25 16:30:29;;;;;;;14.70;8.90;;;18.40;39.90;;;;;;8310946;28;20206;-76
2021/04/25 16:34:29;;;;;;;17.20;9.30;;;18.60;39.20;;;;;;8308753;28;20448;-76
2021/04/25 16:38:30;;;;;;;13.17;8.27;;;18.50;38.60;;;;;;8310108;28;20353;-76
2021/04/25 16:42:49;;;;;;;9.93;8.90;;;18.30;39.70;;;;;;8344826;28;20206;-77
2021/04/25 16:47:38;;;;;;;14.17;9.27;;;18.30;40.00;;;;;;8335160;28;20791;-77
2021/04/25 16:51:39;;;;;;;15.93;8.87;;;17.90;40.30;;;;;;8333456;28;20517;-77
2021/04/25 16:55:49;;;;;;;12.47;7.63;;;17.70;41.20;;;;;;8306863;28;20498;-71
2021/04/25 17:00:06;;;;;;;11.77;7.83;;;17.50;41.50;;;;;;8359241;28;20432;-75
2021/04/25 17:04:12;;;;;;;13.13;8.70;;;17.40;41.70;;;;;;8313952;28;20547;-72
2021/04/25 17:08:13;;;;;;;13.13;8.70;;;17.10;41.60;;;;;;8297355;28;20449;-78
2021/04/25 17:12:14;;;;;;;9.70;8.73;;;16.90;41.80;;;;;;8292749;28;20449;-74
2021/04/25 17:16:15;;;;;;;11.50;8.80;;;16.60;42.50;;;;;;8303941;28;20274;-75
2021/04/25 17:20:24;;;;;;;12.33;8.20;;;16.40;42.90;;;;;;8325739;28;20474;-76
2021/04/25 17:24:24;;;;;;;13.67;8.47;;;16.10;43.20;;;;;;8296530;28;20211;-74
2021/04/25 17:28:29;;;;;;;16.23;7.57;;;15.90;42.40;;;;;;8315391;28;20592;-75
2021/04/25 17:32:30;;;;;;;11.23;7.33;;;15.80;42.90;;;;;;8324528;28;20196;-76
2021/04/25 17:36:31;;;;;;;13.97;7.03;;;15.80;43.40;;;;;;8338425;28;20536;-75
2021/04/25 17:40:42;;;;;;;7.20;6.30;;;15.90;43.40;;;;;;8314315;28;20470;-75
2021/04/25 17:44:45;;;;;;;9.20;6.63;;;16.00;42.70;;;;;;8307128;28;21079;-76
2021/04/25 17:48:52;;;;;;;8.40;6.70;;;16.10;42.20;;;;;;8291707;28;20500;-75
2021/04/25 17:53:11;;;;;;;14.17;5.73;;;15.80;42.00;;;;;;8311790;28;20457;-75
2021/04/25 17:57:13;;;;;;;19.43;9.23;;;15.60;42.80;;;;;;8315233;28;20485;-74
2021/04/25 18:01:17;;;;;;;10.10;5.77;;;15.40;43.10;;;;;;8322282;28;20484;-76
2021/04/25 18:05:27;;;;;;;8.77;5.77;;;15.20;43.30;;;;;;8315649;28;20481;-75
2021/04/25 18:09:28;;;;;;;13.10;6.73;;;14.80;43.80;;;;;;8324573;28;20441;-75
2021/04/25 18:13:33;;;;;;;6.10;5.47;;;14.60;44.70;;;;;;8335084;28;20488;-75
2021/04/25 18:17:40;;;;;;;11.80;7.20;;;14.30;44.20;;;;;;8307803;28;20477;-74
2021/04/25 18:21:41;;;;;;;8.13;5.43;;;13.90;44.40;;;;;;8308627;28;20551;-76
2021/04/25 18:25:53;;;;;;;6.60;5.80;;;13.60;44.90;;;;;;8332549;28;20559;-74
2021/04/25 18:29:59;;;;;;;8.47;6.10;;;13.30;46.10;;;;;;8330576;28;20534;-77
2021/04/25 18:34:09;;;;;;;14.77;8.97;;;13.10;46.60;;;;;;8300109;28;20455;-77
2021/04/25 18:38:23;;;;;;;22.37;10.47;;;12.90;47.30;;;;;;8311398;28;20451;-77
2021/04/25 18:42:24;;;;;;;11.47;6.60;;;12.70;48.20;;;;;;8338412;28;20538;-76
2021/04/25 18:46:26;;;;;;;20.63;10.37;;;12.40;48.50;;;;;;8331473;28;20463;-76
2021/04/25 18:50:29;;;;;;;15.43;8.27;;;12.30;48.60;;;;;;8320709;28;20434;-78
2021/04/25 18:54:32;;;;;;;13.40;6.57;;;12.10;48.90;;;;;;8323222;28;20541;-77
2021/04/25 18:58:36;;;;;;;7.90;5.37;;;11.90;49.50;;;;;;8321297;28;20549;-76
2021/04/25 19:02:38;;;;;;;13.05;6.45;;;11.70;49.70;;;;;;8312920;28;20441;-77
2021/04/25 19:06:43;;;;;;;17.07;6.30;;;11.60;50.20;;;;;;8306937;28;20216;-78
2021/04/25 19:11:02;;;;;;;9.13;4.93;;;11.40;51.10;;;;;;8318538;28;20506;-78
2021/04/25 19:15:06;;;;;;;8.50;5.00;;;11.30;51.50;;;;;;8306041;28;20458;-77
2021/04/25 19:19:08;;;;;;;21.73;5.67;;;11.10;52.20;;;;;;8297600;28;20465;-78
2021/04/25 19:23:12;;;;;;;6.07;4.63;;;10.90;53.70;;;;;;8319008;28;20965;-77
2021/04/25 19:27:22;;;;;;;8.80;4.70;;;10.80;54.00;;;;;;8307481;28;20533;-78
2021/04/25 19:31:23;;;;;;;12.80;6.17;;;10.60;54.00;;;;;;8322633;28;20522;-78
2021/04/25 19:35:31;;;;;;;8.90;6.53;;;10.50;54.80;;;;;;8342236;28;21363;-77
2021/04/25 19:39:32;;;;;;;8.87;5.70;;;10.50;55.00;;;;;;8327923;28;20433;-76
2021/04/25 19:43:40;;;;;;;8.50;5.90;;;10.40;55.70;;;;;;8345970;28;20438;-76
2021/04/25 19:47:49;;;;;;;13.93;5.87;;;10.40;55.80;;;;;;8329531;28;20453;-78
2021/04/25 19:52:08;;;;;;;9.50;5.73;;;10.30;56.20;;;;;;8304805;28;20450;-78
2021/04/25 19:56:14;;;;;;;10.97;6.30;;;10.20;56.40;;;;;;8328291;28;20450;-77
2021/04/25 20:00:38;;;;;;;9.63;6.50;;;10.10;56.80;;;;;;8317911;28;20450;-77
2021/04/25 20:04:43;;;;;;;11.80;6.40;;;10.00;57.50;;;;;;8314441;28;20465;-79
2021/04/25 20:09:01;;;;;;;7.63;4.97;;;9.90;57.60;;;;;;8317001;28;20455;-79
2021/04/25 20:13:07;;;;;;;11.60;6.70;;;9.80;58.60;;;;;;8308975;28;20441;-78
2021/04/25 20:17:16;;;;;;;13.37;6.70;;;9.70;60.10;;;;;;8322794;28;20507;-76
2021/04/25 20:21:24;;;;;;;9.00;5.93;;;9.50;60.30;;;;;;8334234;28;20450;-76
2021/04/25 20:25:34;;;;;;;8.73;6.70;;;9.40;61.20;;;;;;8311080;28;20466;-77
2021/04/25 20:29:39;;;;;;;9.10;6.30;;;9.30;62.00;;;;;;8319717;28;20447;-77
2021/04/25 20:33:41;;;;;;;12.97;7.87;;;9.20;64.00;;;;;;8320371;28;20429;-76
2021/04/25 20:37:43;;;;;;;15.10;6.53;;;9.10;65.00;;;;;;8335175;28;20455;-76
2021/04/25 20:41:45;;;;;;;15.40;7.43;;;8.90;66.90;;;;;;8311014;28;20446;-77
2021/04/25 20:45:48;;;;;;;13.80;8.00;;;8.70;66.50;;;;;;8311153;28;20462;-76
2021/04/25 20:49:53;;;;;;;14.17;8.50;;;8.60;67.40;;;;;;8312986;28;20525;-76
2021/04/25 20:53:54;;;;;;;11.20;7.60;;;8.50;69.50;;;;;;8320520;28;20492;-76
2021/04/25 20:58:01;;;;;;;9.90;6.30;;;8.30;69.60;;;;;;8307725;28;20203;-76
2021/04/25 21:02:02;;;;;;;8.43;6.60;;;8.20;70.20;;;;;;8310142;28;20462;-76
2021/04/25 21:06:05;;;;;;;12.63;7.90;;;8.20;70.90;;;;;;8317326;28;20823;-76
2021/04/25 21:10:08;;;;;;;9.50;7.80;;;8.10;71.60;;;;;;8315065;28;20443;-76
2021/04/25 21:14:19;;;;;;;7.60;6.57;;;8.10;72.20;;;;;;8339948;28;20430;-76